Time;durP1;ratioP1;P1;durP2;ratioP2;P2;SDS_P1;SDS_P2;PMS_P1;PMS_P2;Temp;Humidity;BMP_temperature;BMP_pressure;BME280_temperature;BME280_humidity;BME280_pressure;Samples;Min_cycle;Max_cycle;Signal;HPM_P1;HPM_P2
2021/08/20 00:02:30;;;;;;;6.43;4.20;;;16.30;99.90;;;17.41;100.00;98141.66;4943273;28;20478;-73
2021/08/20 00:04:59;;;;;;;5.57;4.27;;;16.30;99.90;;;17.36;100.00;98141.53;4949564;28;20506;-73
2021/08/20 00:07:28;;;;;;;6.93;4.37;;;16.20;99.90;;;17.28;100.00;98141.06;4951504;28;20512;-73
2021/08/20 00:09:59;;;;;;;5.07;3.83;;;16.10;99.90;;;17.26;100.00;98138.63;4962007;28;20496;-73
2021/08/20 00:12:29;;;;;;;5.43;4.03;;;16.10;99.90;;;17.22;100.00;98137.47;4946337;28;20521;-73
2021/08/20 00:14:57;;;;;;;6.40;4.00;;;16.10;99.90;;;17.20;100.00;98139.56;4951558;28;20577;-73
2021/08/20 00:17:26;;;;;;;4.67;4.27;;;16.10;99.90;;;17.19;100.00;98143.22;4948170;28;20504;-73
2021/08/20 00:19:55;;;;;;;9.23;4.47;;;16.10;99.90;;;17.18;100.00;98143.47;4944575;28;20497;-73
2021/08/20 00:22:23;;;;;;;10.33;4.17;;;16.00;99.90;;;17.09;100.00;98137.69;4957409;28;20497;-73
2021/08/20 00:24:52;;;;;;;5.67;4.40;;;15.90;99.90;;;17.11;100.00;98140.91;4939841;28;20517;-73
2021/08/20 00:27:20;;;;;;;7.27;4.13;;;16.00;99.90;;;17.16;100.00;98137.56;4953874;28;20501;-73
2021/08/20 00:29:50;;;;;;;5.77;4.03;;;16.00;99.90;;;17.11;100.00;98140.91;4953197;28;20500;-73
2021/08/20 00:32:18;;;;;;;5.60;4.27;;;16.00;99.90;;;16.94;100.00;98147.84;4950995;28;20906;-73
2021/08/20 00:34:47;;;;;;;10.17;4.70;;;15.80;99.90;;;16.90;100.00;98146.72;4956557;28;20875;-73
2021/08/20 00:37:15;;;;;;;10.90;4.03;;;15.80;99.90;;;16.96;100.00;98151.09;4957932;28;20516;-73
2021/08/20 00:39:44;;;;;;;6.87;3.70;;;15.90;99.90;;;16.99;100.00;98145.34;4949460;28;20529;-73
2021/08/20 00:42:13;;;;;;;5.87;4.43;;;15.90;99.90;;;16.98;100.00;98152.47;4946125;28;20921;-73
2021/08/20 00:44:41;;;;;;;5.33;4.37;;;15.90;99.90;;;16.92;100.00;98148.09;4958684;28;20869;-73
2021/08/20 00:47:11;;;;;;;6.53;4.70;;;15.90;99.90;;;16.92;100.00;98145.44;4945312;28;20525;-73
2021/08/20 00:49:39;;;;;;;6.10;4.10;;;15.90;99.90;;;16.89;100.00;98147.72;4948940;28;20519;-73
2021/08/20 00:52:09;;;;;;;13.43;4.10;;;15.80;99.90;;;16.90;100.00;98142.22;4960763;28;20526;-73
2021/08/20 00:54:37;;;;;;;8.93;4.70;;;15.90;99.90;;;16.91;100.00;98150.94;4945336;28;20580;-74
2021/08/20 00:57:07;;;;;;;6.40;4.30;;;15.90;99.90;;;16.84;100.00;98139.66;4948028;28;20477;-73
2021/08/20 00:59:35;;;;;;;13.00;4.50;;;15.80;99.90;;;16.88;100.00;98144.28;4949252;28;20501;-73
2021/08/20 01:02:04;;;;;;;5.30;4.00;;;15.90;99.90;;;16.89;100.00;98148.53;4956199;28;21039;-73
2021/08/20 01:04:35;;;;;;;4.60;3.70;;;15.90;99.90;;;16.80;100.00;98143.81;4948862;28;20477;-73
2021/08/20 01:07:05;;;;;;;4.40;3.63;;;15.70;99.90;;;16.83;100.00;98138.06;4958981;28;20594;-73
2021/08/20 01:09:35;;;;;;;5.87;4.30;;;15.80;99.90;;;16.82;100.00;98141.72;4951121;28;20509;-73
2021/08/20 01:12:06;;;;;;;5.47;3.73;;;15.80;99.90;;;16.77;100.00;98144.22;4952394;28;20497;-73
2021/08/20 01:14:37;;;;;;;7.77;4.53;;;15.70;99.90;;;16.75;100.00;98141.81;4947663;28;21037;-73
2021/08/20 01:17:09;;;;;;;5.60;3.87;;;15.70;99.90;;;16.65;100.00;98140.75;4949911;28;21100;-73
2021/08/20 01:19:39;;;;;;;7.50;4.17;;;15.50;99.90;;;16.63;100.00;98142.78;4960683;28;21008;-73
2021/08/20 01:22:09;;;;;;;4.43;3.90;;;15.50;99.90;;;16.63;100.00;98135.69;4959942;28;20497;-73
2021/08/20 01:24:37;;;;;;;5.33;4.53;;;15.50;99.90;;;16.59;100.00;98131.91;4952977;28;20477;-73
2021/08/20 01:27:07;;;;;;;8.47;4.40;;;15.50;99.90;;;16.59;100.00;98127.41;4956972;28;20670;-73
2021/08/20 01:29:36;;;;;;;9.13;4.37;;;15.50;99.90;;;16.59;100.00;98130.03;4964896;28;20953;-73
2021/08/20 01:32:06;;;;;;;6.97;4.70;;;15.60;99.90;;;16.60;100.00;98130.84;4958205;28;20548;-73
2021/08/20 01:34:34;;;;;;;8.43;4.50;;;15.60;99.90;;;16.57;100.00;98134.75;4967420;28;20504;-73
2021/08/20 01:37:03;;;;;;;9.80;4.20;;;15.50;99.90;;;16.55;100.00;98131.53;4951358;28;20612;-73
2021/08/20 01:39:31;;;;;;;9.47;4.63;;;15.50;99.90;;;16.49;100.00;98131.56;4950559;28;20572;-73
2021/08/20 01:41:59;;;;;;;9.73;3.90;;;15.40;99.90;;;16.33;100.00;98130.34;4952927;28;21016;-73
2021/08/20 01:44:29;;;;;;;6.83;4.10;;;15.10;99.90;;;16.39;100.00;98132.09;4949305;28;20561;-73
2021/08/20 01:46:57;;;;;;;6.80;3.87;;;15.30;99.90;;;16.38;100.00;98127.84;4945882;28;20945;-73
2021/08/20 01:49:26;;;;;;;5.90;4.37;;;15.40;99.90;;;16.34;100.00;98133.78;4958820;28;20992;-73
2021/08/20 01:51:54;;;;;;;7.37;4.27;;;15.30;99.90;;;16.30;100.00;98138.72;4950935;28;20548;-73
2021/08/20 01:54:23;;;;;;;9.40;4.57;;;15.30;99.90;;;16.26;100.00;98134.91;4951109;28;20480;-73
2021/08/20 01:56:53;;;;;;;7.07;4.37;;;15.20;99.90;;;16.24;100.00;98131.69;4958164;28;20547;-73
2021/08/20 01:59:21;;;;;;;6.40;4.60;;;15.20;99.90;;;16.20;100.00;98132.34;4942599;28;20971;-73
2021/08/20 02:01:51;;;;;;;5.47;4.93;;;15.10;99.90;;;16.24;100.00;98136.16;4950931;28;20504;-73
2021/08/20 02:04:20;;;;;;;6.07;4.30;;;15.10;99.90;;;16.21;100.00;98134.72;4949623;28;20809;-73
2021/08/20 02:06:49;;;;;;;9.83;4.50;;;15.20;99.90;;;16.16;100.00;98139.88;4960047;28;20503;-73
2021/08/20 02:09:17;;;;;;;6.53;4.20;;;15.00;99.90;;;16.16;100.00;98142.53;4950207;28;20493;-73
2021/08/20 02:11:45;;;;;;;6.00;4.60;;;15.10;99.90;;;16.09;100.00;98144.44;4959259;28;20556;-73
2021/08/20 02:14:14;;;;;;;14.23;4.80;;;15.00;99.90;;;16.06;100.00;98142.22;4949368;28;20678;-73
2021/08/20 02:16:42;;;;;;;8.63;4.90;;;14.90;99.90;;;16.10;100.00;98133.63;4951418;28;20513;-73
2021/08/20 02:19:12;;;;;;;5.93;4.47;;;15.10;99.90;;;16.18;100.00;98139.66;4946319;28;20524;-73
2021/08/20 02:21:41;;;;;;;8.13;4.40;;;15.20;99.90;;;16.19;100.00;98134.16;4955617;28;20539;-73
2021/08/20 02:24:09;;;;;;;6.50;4.63;;;15.30;99.90;;;16.23;100.00;98139.81;4947978;28;20554;-73
2021/08/20 02:26:37;;;;;;;7.33;4.80;;;15.20;99.90;;;16.18;100.00;98137.00;4948593;28;20543;-73
2021/08/20 02:29:06;;;;;;;7.80;4.20;;;15.10;99.90;;;16.08;100.00;98140.16;4953308;28;20513;-73
2021/08/20 02:31:34;;;;;;;5.43;4.10;;;15.00;99.90;;;16.06;100.00;98144.88;4950371;28;20504;-73
2021/08/20 02:34:03;;;;;;;7.50;4.57;;;14.90;99.90;;;16.08;100.00;98142.81;4957167;28;20465;-73
2021/08/20 02:36:33;;;;;;;7.40;4.00;;;15.00;99.90;;;16.10;100.00;98149.47;4968801;28;20504;-73
2021/08/20 02:39:02;;;;;;;14.03;4.80;;;15.00;99.90;;;16.07;100.00;98155.19;4949367;28;21087;-73
2021/08/20 02:41:30;;;;;;;10.10;4.03;;;15.10;99.90;;;16.05;100.00;98156.44;4952677;28;20548;-73
2021/08/20 02:43:58;;;;;;;5.23;4.00;;;15.10;99.90;;;16.04;100.00;98149.53;4956629;28;20911;-73
2021/08/20 02:46:31;;;;;;;5.80;4.57;;;15.10;99.90;;;16.01;100.00;98148.16;4955059;28;20469;-73
2021/08/20 02:48:59;;;;;;;5.53;4.00;;;15.10;99.90;;;15.97;100.00;98149.63;4955493;28;20477;-73
2021/08/20 02:51:28;;;;;;;7.80;4.20;;;14.90;99.90;;;16.01;100.00;98155.25;4958315;28;20531;-73
2021/08/20 02:53:58;;;;;;;9.00;5.10;;;15.00;99.90;;;15.97;100.00;98154.06;4954314;28;20525;-73
2021/08/20 02:56:27;;;;;;;6.03;3.80;;;15.10;99.90;;;16.00;100.00;98151.03;4952542;28;20465;-73
2021/08/20 02:58:55;;;;;;;6.10;4.17;;;15.00;99.90;;;15.98;100.00;98150.41;4959386;28;20504;-73
2021/08/20 03:01:24;;;;;;;4.50;3.27;;;15.10;99.90;;;15.97;100.00;98152.25;4948403;28;20504;-73
2021/08/20 03:03:53;;;;;;;4.63;3.90;;;15.00;99.90;;;15.94;100.00;98143.97;4955627;28;20470;-73
2021/08/20 03:06:21;;;;;;;7.87;4.70;;;14.90;99.90;;;15.95;100.00;98153.50;4954968;28;20512;-73
2021/08/20 03:08:49;;;;;;;8.77;4.30;;;14.90;99.90;;;15.97;100.00;98154.06;4965251;28;20500;-73
2021/08/20 03:11:19;;;;;;;8.17;4.23;;;14.90;99.90;;;15.97;100.00;98148.81;4948864;28;20564;-73
2021/08/20 03:13:48;;;;;;;7.60;4.17;;;14.90;99.90;;;15.97;100.00;98146.16;4959430;28;20508;-73
2021/08/20 03:16:16;;;;;;;5.40;3.63;;;14.90;99.90;;;15.97;100.00;98143.53;4954319;28;20769;-73
2021/08/20 03:18:45;;;;;;;4.67;3.90;;;14.90;99.90;;;15.93;100.00;98147.66;4968538;28;20473;-73
2021/08/20 03:21:13;;;;;;;6.67;4.23;;;14.90;99.90;;;15.93;100.00;98150.28;4945425;28;20590;-73
2021/08/20 03:23:42;;;;;;;7.50;4.77;;;14.90;99.90;;;15.93;100.00;98150.28;4950082;28;20474;-73
2021/08/20 03:26:10;;;;;;;6.60;4.27;;;14.90;99.90;;;15.86;100.00;98149.53;4968089;28;20495;-73
2021/08/20 03:28:40;;;;;;;5.30;3.50;;;14.80;99.90;;;15.87;100.00;98151.94;4966314;28;20548;-73
2021/08/20 03:31:09;;;;;;;4.60;4.10;;;14.80;99.90;;;15.82;100.00;98148.38;4954912;28;20776;-79
2021/08/20 03:33:37;;;;;;;5.60;4.00;;;14.80;99.90;;;15.83;100.00;98134.94;4943665;28;20481;-73
2021/08/20 03:36:06;;;;;;;6.30;4.00;;;14.80;99.90;;;15.79;100.00;98146.16;4950494;28;20566;-73
2021/08/20 03:38:35;;;;;;;14.93;9.97;;;14.80;99.90;;;15.77;100.00;98138.47;4958304;28;20516;-74
2021/08/20 03:41:03;;;;;;;7.13;4.57;;;14.70;99.90;;;15.73;100.00;98141.72;4946267;28;20599;-73
2021/08/20 03:43:32;;;;;;;4.37;3.80;;;14.70;99.90;;;15.72;100.00;98146.22;4952994;28;20470;-73
2021/08/20 03:46:03;;;;;;;6.10;4.03;;;14.70;99.90;;;15.71;100.00;98146.44;4961200;28;20473;-73
2021/08/20 03:48:32;;;;;;;4.50;3.60;;;14.70;99.90;;;15.66;100.00;98154.16;4953382;28;20558;-73
2021/08/20 03:51:00;;;;;;;6.43;3.60;;;14.60;99.90;;;15.63;100.00;98157.25;4954067;28;20520;-73
2021/08/20 03:53:29;;;;;;;7.10;3.83;;;14.60;99.90;;;15.58;100.00;98160.56;4968503;28;20477;-73
2021/08/20 03:55:57;;;;;;;6.90;3.80;;;14.50;99.90;;;15.60;100.00;98156.66;4958396;28;20512;-73
2021/08/20 03:58:26;;;;;;;4.97;3.97;;;14.50;99.90;;;15.60;100.00;98156.66;4962127;28;20508;-72
2021/08/20 04:00:54;;;;;;;8.57;4.97;;;14.50;99.90;;;15.49;100.00;98161.81;4962974;28;20540;-81
2021/08/20 04:03:25;;;;;;;5.57;3.63;;;14.30;99.90;;;15.46;100.00;98168.31;4955526;28;20482;-73
2021/08/20 04:05:54;;;;;;;13.63;3.93;;;14.30;99.90;;;15.41;100.00;98157.59;4960512;28;20469;-73
2021/08/20 04:08:22;;;;;;;4.90;3.60;;;14.30;99.90;;;15.38;100.00;98160.66;4956333;28;20465;-73
2021/08/20 04:10:51;;;;;;;4.07;3.43;;;14.20;99.90;;;15.39;100.00;98161.47;4950550;29;20462;-73
2021/08/20 04:13:19;;;;;;;5.03;3.57;;;14.20;99.90;;;15.35;100.00;98162.91;4955305;28;20491;-79
2021/08/20 04:15:48;;;;;;;7.40;5.40;;;14.30;99.90;;;15.33;100.00;98170.25;4956617;28;20477;-72
2021/08/20 04:18:16;;;;;;;6.43;4.07;;;14.20;99.90;;;15.30;100.00;98168.84;4960904;28;20472;-73
2021/08/20 04:20:46;;;;;;;6.67;3.30;;;14.20;99.90;;;15.28;100.00;98170.88;4952973;28;20596;-72
2021/08/20 04:23:18;;;;;;;7.30;4.17;;;14.30;99.90;;;15.29;100.00;98180.41;4970477;28;20472;-72
2021/08/20 04:25:47;;;;;;;4.83;3.37;;;14.30;99.90;;;15.24;100.00;98185.47;4959972;28;20506;-73
2021/08/20 04:28:16;;;;;;;4.50;3.20;;;14.20;99.90;;;15.25;100.00;98175.75;4954511;28;20524;-73
2021/08/20 04:30:44;;;;;;;5.00;3.87;;;14.20;99.90;;;15.23;100.00;98183.91;4950895;28;20566;-73
2021/08/20 04:33:12;;;;;;;6.17;3.67;;;14.30;99.90;;;15.22;100.00;98186.72;4968248;28;20508;-72
2021/08/20 04:35:41;;;;;;;5.00;3.30;;;14.30;99.90;;;15.20;100.00;98191.41;4955951;28;20508;-73
2021/08/20 04:38:11;;;;;;;5.40;3.87;;;14.20;99.90;;;15.13;100.00;98196.72;4953483;29;20469;-72
2021/08/20 04:40:39;;;;;;;10.90;4.20;;;14.20;99.90;;;15.07;100.00;98197.56;4958614;28;21073;-73
2021/08/20 04:43:07;;;;;;;5.13;3.80;;;13.90;99.90;;;15.01;100.00;98196.59;4963826;28;21002;-73
2021/08/20 04:45:36;;;;;;;9.53;4.47;;;13.90;99.90;;;14.97;100.00;98197.22;4971134;28;21041;-73
2021/08/20 04:48:05;;;;;;;5.37;3.83;;;13.90;99.90;;;14.91;100.00;98196.22;4969907;28;20504;-73
2021/08/20 04:50:33;;;;;;;6.20;3.90;;;13.70;99.90;;;14.99;100.00;98195.19;4971646;28;20508;-73
2021/08/20 04:53:03;;;;;;;6.00;4.03;;;13.90;99.90;;;14.98;100.00;98197.00;4969599;28;20511;-72
2021/08/20 04:55:33;;;;;;;12.40;4.13;;;13.80;99.90;;;15.00;100.00;98194.97;4956630;28;20472;-72
2021/08/20 04:58:01;;;;;;;7.93;4.47;;;13.90;99.90;;;15.02;100.00;98200.84;4970860;28;20520;-72
2021/08/20 05:00:29;;;;;;;6.33;4.00;;;14.00;99.90;;;15.04;100.00;98198.78;4953207;28;20528;-73
2021/08/20 05:02:59;;;;;;;9.10;3.40;;;14.00;99.90;;;15.08;100.00;98199.16;4963241;28;20465;-72
2021/08/20 05:05:34;;;;;;;6.20;3.53;;;14.00;99.90;;;15.09;100.00;98204.25;4953492;28;20980;-73
2021/08/20 05:08:02;;;;;;;6.43;3.70;;;14.00;99.90;;;15.10;100.00;98205.03;4962205;28;20891;-73
2021/08/20 05:10:33;;;;;;;7.37;3.47;;;14.00;99.90;;;14.99;100.00;98203.88;4968245;28;20484;-72
2021/08/20 05:13:01;;;;;;;10.57;3.50;;;13.90;99.90;;;15.01;100.00;98211.56;4948325;28;20509;-73
2021/08/20 05:15:30;;;;;;;5.17;3.97;;;13.90;99.90;;;15.04;100.00;98209.31;4947329;29;20504;-73
2021/08/20 05:17:59;;;;;;;4.70;3.90;;;14.00;99.90;;;15.08;100.00;98217.63;4957182;28;20516;-73
2021/08/20 05:20:27;;;;;;;5.83;3.67;;;14.00;99.90;;;15.09;100.00;98221.88;4958356;28;20504;-72
2021/08/20 05:22:56;;;;;;;5.90;3.60;;;14.10;99.90;;;15.13;100.00;98217.81;4967955;28;20535;-73
2021/08/20 05:25:27;;;;;;;6.00;3.80;;;14.10;99.90;;;15.17;100.00;98218.19;4955982;28;20934;-72
2021/08/20 05:27:58;;;;;;;7.47;4.17;;;14.10;99.90;;;15.19;100.00;98224.03;4942646;28;20540;-73
2021/08/20 05:30:27;;;;;;;8.40;4.73;;;14.20;99.90;;;15.20;100.00;98226.47;4949696;28;20497;-72
2021/08/20 05:32:55;;;;;;;7.00;4.53;;;14.20;99.90;;;15.23;100.00;98231.31;4928496;29;20482;-72
2021/08/20 05:35:24;;;;;;;7.60;4.50;;;14.20;99.90;;;15.23;100.00;98233.94;4915152;29;20511;-73
2021/08/20 05:37:55;;;;;;;6.57;4.60;;;14.20;99.90;;;15.29;100.00;98238.38;4914488;29;20479;-73
2021/08/20 05:40:24;;;;;;;6.23;4.30;;;14.30;99.90;;;15.30;100.00;98240.00;4927259;29;20479;-73
2021/08/20 05:42:52;;;;;;;8.60;4.20;;;14.30;99.90;;;15.28;100.00;98238.56;4931940;29;20521;-72
2021/08/20 05:45:22;;;;;;;10.83;4.60;;;14.30;99.90;;;15.34;100.00;98235.88;4922873;29;20958;-73
2021/08/20 05:47:51;;;;;;;11.43;3.73;;;14.30;99.90;;;15.39;100.00;98236.06;4925080;29;20537;-72
2021/08/20 05:50:19;;;;;;;6.73;3.93;;;14.40;99.90;;;15.41;100.00;98234.00;4926040;29;20507;-73
2021/08/20 05:52:47;;;;;;;5.77;3.70;;;14.40;99.90;;;15.45;100.00;98229.13;4925597;29;20509;-73
2021/08/20 05:55:16;;;;;;;8.40;4.00;;;14.40;99.90;;;15.50;100.00;98226.69;4919926;29;20485;-73
2021/08/20 05:57:45;;;;;;;5.00;3.77;;;14.50;99.90;;;15.54;100.00;98236.63;4930737;29;20574;-73
2021/08/20 06:00:15;;;;;;;5.10;3.93;;;14.60;99.90;;;15.60;100.00;98243.66;4910482;29;20503;-73
2021/08/20 06:02:44;;;;;;;5.70;3.63;;;14.70;99.90;;;15.64;100.00;98249.31;4910624;29;20504;-73
2021/08/20 06:05:13;;;;;;;5.23;3.97;;;14.70;99.90;;;15.71;100.00;98246.63;4916041;29;20478;-73
2021/08/20 06:07:42;;;;;;;6.90;4.37;;;14.70;99.90;;;15.71;100.00;98244.81;4926075;29;20471;-73
2021/08/20 06:10:11;;;;;;;5.53;3.83;;;14.80;99.90;;;15.70;100.00;98242.38;4918228;29;20479;-73
2021/08/20 06:12:40;;;;;;;7.70;4.70;;;14.80;99.90;;;15.71;100.00;98238.72;4925105;29;20479;-73
2021/08/20 06:15:10;;;;;;;5.50;4.20;;;14.90;99.90;;;15.69;100.00;98240.78;4925164;29;20479;-73
2021/08/20 06:17:39;;;;;;;7.47;4.13;;;14.90;99.90;;;15.72;100.00;98240.34;4918510;29;20503;-73
2021/08/20 06:20:11;;;;;;;6.30;3.90;;;15.00;99.90;;;15.73;100.00;98239.28;4927342;29;20478;-73
2021/08/20 06:22:40;;;;;;;5.57;4.00;;;15.00;99.90;;;15.78;100.00;98240.28;4920356;29;20774;-73
2021/08/20 06:25:10;;;;;;;7.80;4.40;;;14.90;99.90;;;15.82;100.00;98236.19;4924828;29;20541;-73
2021/08/20 06:27:38;;;;;;;4.20;3.60;;;15.00;99.90;;;15.87;100.00;98238.97;4926140;29;20944;-73
2021/08/20 06:30:08;;;;;;;5.57;3.63;;;15.00;99.90;;;15.88;100.00;98231.88;4930257;29;20625;-73
2021/08/20 06:32:36;;;;;;;6.80;3.40;;;15.00;99.90;;;15.95;100.00;98235.28;4958630;28;20525;-74
2021/08/20 06:35:05;;;;;;;5.43;4.50;;;15.10;99.90;;;15.98;100.00;98229.56;4955946;29;20504;-73
2021/08/20 06:37:35;;;;;;;8.10;4.37;;;15.20;99.90;;;16.01;100.00;98232.56;4954444;29;20502;-73
2021/08/20 06:40:05;;;;;;;5.37;3.70;;;15.20;99.90;;;16.05;100.00;98238.22;4963361;28;20495;-74
2021/08/20 06:42:34;;;;;;;5.07;3.83;;;15.20;99.90;;;16.11;100.00;98234.72;4959548;28;20536;-73
2021/08/20 06:45:02;;;;;;;5.70;3.90;;;15.30;99.90;;;16.16;100.00;98237.50;4965871;28;20524;-74
2021/08/20 06:47:31;;;;;;;4.00;3.23;;;15.30;99.90;;;16.19;100.00;98237.06;4963417;28;20528;-73
2021/08/20 06:49:59;;;;;;;4.03;3.17;;;15.40;99.90;;;16.25;100.00;98238.84;4963266;28;20571;-73
2021/08/20 06:52:29;;;;;;;3.97;2.90;;;15.40;99.90;;;16.29;100.00;98241.84;4961845;28;20982;-73
2021/08/20 06:54:59;;;;;;;5.60;3.57;;;15.40;99.90;;;16.33;100.00;98240.38;4958748;28;20540;-73
2021/08/20 06:57:28;;;;;;;9.27;3.10;;;15.40;99.90;;;16.36;100.00;98234.66;4970306;28;20476;-73
2021/08/20 06:59:57;;;;;;;4.63;3.03;;;15.50;99.90;;;16.38;100.00;98238.69;4963931;28;20978;-73
2021/08/20 07:02:25;;;;;;;6.07;3.50;;;15.60;99.90;;;16.41;100.00;98242.75;4952941;28;20559;-73
2021/08/20 07:04:54;;;;;;;3.60;2.77;;;15.60;99.90;;;16.45;100.00;98242.06;4957998;28;20564;-74
2021/08/20 07:07:22;;;;;;;5.03;3.20;;;15.70;99.90;;;16.50;100.00;98239.59;4957736;28;20517;-74
2021/08/20 07:09:51;;;;;;;6.33;3.00;;;15.70;99.90;;;16.51;100.00;98243.84;4962521;28;20504;-73
2021/08/20 07:12:21;;;;;;;3.57;2.40;;;15.70;99.90;;;16.53;100.00;98240.97;4968010;28;20501;-73
2021/08/20 07:14:49;;;;;;;7.23;3.57;;;15.70;99.90;;;16.56;100.00;98244.03;4962778;28;20473;-73
2021/08/20 07:17:17;;;;;;;5.97;3.40;;;15.70;99.90;;;16.61;100.00;98240.72;4962512;28;20531;-73
2021/08/20 07:19:46;;;;;;;4.30;2.83;;;15.80;99.90;;;16.65;100.00;98241.09;4960807;28;20536;-73
2021/08/20 07:22:14;;;;;;;5.77;3.53;;;15.80;99.90;;;16.67;100.00;98239.84;4954775;29;20584;-73
2021/08/20 07:24:42;;;;;;;4.07;3.00;;;15.80;99.90;;;16.71;100.00;98248.13;4967374;28;20504;-73
2021/08/20 07:27:11;;;;;;;5.53;3.50;;;15.90;99.90;;;16.76;100.00;98246.47;4961148;28;20834;-73
2021/08/20 07:29:41;;;;;;;5.70;3.20;;;15.90;99.90;;;16.80;100.00;98238.91;4960311;28;20573;-73
2021/08/20 07:32:10;;;;;;;3.67;2.70;;;16.00;99.90;;;16.84;100.00;98242.69;4963342;28;20501;-73
2021/08/20 07:34:38;;;;;;;3.90;2.87;;;16.00;99.90;;;16.88;100.00;98238.56;4968462;28;20511;-73
2021/08/20 07:37:07;;;;;;;3.53;2.50;;;16.00;99.90;;;16.89;100.00;98240.19;4963266;28;20509;-74
2021/08/20 07:39:36;;;;;;;3.30;2.90;;;16.10;99.90;;;16.93;100.00;98238.72;4960864;28;20480;-74
2021/08/20 07:42:07;;;;;;;3.93;2.40;;;16.10;99.90;;;16.96;100.00;98246.19;4957064;28;20528;-74
2021/08/20 07:44:35;;;;;;;4.70;2.63;;;16.20;99.90;;;16.99;100.00;98243.13;4967513;28;20880;-74
2021/08/20 07:47:06;;;;;;;3.13;2.60;;;16.30;99.90;;;17.03;100.00;98245.09;4960434;28;20538;-73
2021/08/20 07:49:35;;;;;;;6.37;4.17;;;16.30;99.90;;;17.06;100.00;98243.84;4959733;28;20477;-73
2021/08/20 07:52:04;;;;;;;8.10;2.40;;;16.30;99.90;;;17.13;100.00;98241.09;4964885;28;20484;-73
2021/08/20 07:54:32;;;;;;;3.90;2.80;;;16.40;99.90;;;17.18;100.00;98249.97;4966484;28;20472;-74
2021/08/20 07:57:01;;;;;;;6.97;2.63;;;16.50;99.90;;;17.21;100.00;98249.53;4966603;28;20543;-74
2021/08/20 07:59:29;;;;;;;2.87;2.30;;;16.50;99.90;;;17.24;100.00;98241.16;4958286;28;20477;-74
2021/08/20 08:01:58;;;;;;;6.13;2.50;;;16.60;99.90;;;17.27;100.00;98245.19;4954795;28;20881;-74
2021/08/20 08:04:28;;;;;;;2.93;2.00;;;16.50;99.90;;;17.29;100.00;98248.38;4958623;28;20480;-74
2021/08/20 08:06:56;;;;;;;3.37;2.30;;;16.50;99.90;;;17.34;100.00;98252.00;4964366;28;20477;-73
2021/08/20 08:09:25;;;;;;;3.50;2.67;;;16.50;99.90;;;17.40;100.00;98255.56;4961485;28;20821;-73
2021/08/20 08:11:53;;;;;;;3.50;2.37;;;16.60;99.90;;;17.43;100.00;98250.63;4954588;28;20528;-74
2021/08/20 08:14:21;;;;;;;11.80;2.50;;;16.70;99.90;;;17.48;100.00;98253.41;4961067;28;20480;-74
2021/08/20 08:16:50;;;;;;;5.50;2.87;;;16.70;99.90;;;17.54;100.00;98262.28;4959776;28;20468;-74
2021/08/20 08:19:19;;;;;;;6.40;2.53;;;16.80;99.90;;;17.59;100.00;98260.63;4959957;28;20513;-74
2021/08/20 08:21:49;;;;;;;3.97;2.77;;;16.90;99.90;;;17.66;100.00;98259.69;4962762;28;20465;-74
2021/08/20 08:24:17;;;;;;;4.13;2.13;;;16.90;99.90;;;17.70;100.00;98266.16;4961621;28;20505;-74
2021/08/20 08:26:46;;;;;;;2.73;2.27;;;16.90;99.90;;;17.76;100.00;98266.06;4967854;28;21139;-74
2021/08/20 08:29:14;;;;;;;2.60;2.20;;;17.00;99.90;;;17.84;100.00;98262.28;4953425;28;20512;-74
2021/08/20 08:31:43;;;;;;;2.83;2.03;;;17.10;99.90;;;17.91;100.00;98262.97;4961052;28;20500;-74
2021/08/20 08:34:11;;;;;;;2.90;2.20;;;17.20;99.90;;;17.99;100.00;98268.72;4960514;28;20481;-74
2021/08/20 08:36:40;;;;;;;2.83;1.80;;;17.30;99.90;;;18.05;100.00;98272.28;4959178;28;20913;-76
2021/08/20 08:39:10;;;;;;;2.30;1.73;;;17.40;99.90;;;18.14;100.00;98272.75;4955986;28;20864;-75
2021/08/20 08:41:38;;;;;;;3.70;2.10;;;17.50;99.90;;;18.21;100.00;98273.47;4965465;28;20499;-76
2021/08/20 08:44:07;;;;;;;2.07;1.80;;;17.60;99.90;;;18.26;100.00;98274.38;4964434;28;20543;-75
2021/08/20 08:46:37;;;;;;;2.00;1.73;;;17.60;99.90;;;18.31;100.00;98279.78;4965408;28;20515;-76
2021/08/20 08:49:07;;;;;;;2.97;2.00;;;17.60;99.90;;;18.35;100.00;98280.94;4965904;28;20551;-76
2021/08/20 08:51:35;;;;;;;3.67;2.10;;;17.70;99.90;;;18.40;100.00;98274.94;4956306;28;20473;-76
2021/08/20 08:54:04;;;;;;;2.17;1.70;;;17.70;99.90;;;18.46;100.00;98274.84;4966524;28;20890;-76
2021/08/20 08:56:34;;;;;;;2.33;1.97;;;17.70;99.90;;;18.47;100.00;98273.78;4955679;28;20513;-76
2021/08/20 08:59:02;;;;;;;2.63;1.60;;;17.80;99.90;;;18.52;100.00;98275.78;4945481;28;20509;-76
2021/08/20 09:01:33;;;;;;;1.23;1.13;;;17.80;99.90;;;18.55;100.00;98278.78;4959158;28;20544;-76
2021/08/20 09:04:14;;;;;;;1.77;1.10;;;17.90;99.90;;;18.53;100.00;98278.19;4961209;28;21053;-76
2021/08/20 09:06:44;;;;;;;2.63;1.30;;;17.90;99.90;;;18.43;100.00;98275.28;4960824;28;20481;-76
2021/08/20 09:09:15;;;;;;;2.10;1.50;;;17.70;99.90;;;18.48;100.00;98275.41;4951576;28;20478;-75
2021/08/20 09:11:51;;;;;;;2.23;1.50;;;17.80;99.90;;;18.50;100.00;98278.66;4961362;28;20555;-75
2021/08/20 09:14:20;;;;;;;2.50;1.53;;;17.80;99.90;;;18.50;100.00;98277.84;4955394;28;20484;-75
2021/08/20 09:16:52;;;;;;;1.77;1.40;;;17.80;99.90;;;18.53;100.00;98280.84;4958569;28;20574;-75
2021/08/20 09:19:22;;;;;;;2.03;1.50;;;17.90;99.90;;;18.56;100.00;98276.94;4961886;28;20534;-75
2021/08/20 09:21:54;;;;;;;8.60;1.20;;;17.80;99.90;;;18.59;100.00;98271.97;4946678;29;20803;-76
2021/08/20 09:24:39;;;;;;;2.57;1.37;;;17.90;99.90;;;18.64;100.00;98284.50;4960203;28;20552;-76
2021/08/20 09:27:35;;;;;;;1.47;1.10;;;18.00;99.90;;;18.70;100.00;98283.59;4958417;28;20478;-76
2021/08/20 09:30:08;;;;;;;1.50;1.10;;;18.00;99.90;;;18.73;100.00;98283.13;4924074;28;20552;-76
2021/08/20 09:32:44;;;;;;;1.40;1.17;;;18.00;99.90;;;18.78;100.00;98280.56;4964046;28;20928;-76
2021/08/20 09:35:13;;;;;;;1.50;1.27;;;18.10;99.90;;;18.83;100.00;98287.81;4957463;28;20474;-75
2021/08/20 09:37:41;;;;;;;1.27;1.10;;;18.10;99.90;;;18.87;100.00;98278.38;4960620;28;20521;-76
2021/08/20 09:40:13;;;;;;;6.90;1.77;;;18.20;99.90;;;18.88;100.00;98278.13;4960562;28;20473;-75
2021/08/20 09:42:43;;;;;;;1.87;1.10;;;18.20;99.90;;;18.92;100.00;98278.47;4959078;28;20504;-76
2021/08/20 09:45:20;;;;;;;1.43;1.03;;;18.20;99.90;;;18.96;100.00;98269.81;4959673;28;20538;-76
2021/08/20 09:47:51;;;;;;;1.40;1.20;;;18.30;99.90;;;18.97;100.00;98281.22;4961955;28;20474;-76
2021/08/20 09:50:22;;;;;;;7.10;1.30;;;18.30;99.90;;;19.00;100.00;98278.91;4960560;28;20477;-75
2021/08/20 09:52:51;;;;;;;1.40;1.20;;;18.30;99.90;;;19.06;100.00;98277.16;4961041;28;20477;-76
2021/08/20 09:55:39;;;;;;;2.13;1.30;;;18.50;99.90;;;19.10;100.00;98278.31;4963904;28;20560;-76
2021/08/20 09:58:13;;;;;;;1.43;1.10;;;18.40;99.90;;;19.11;100.00;98282.56;4962257;28;20481;-76
2021/08/20 10:00:43;;;;;;;2.50;1.20;;;18.40;99.90;;;19.18;100.00;98285.09;4965164;28;20465;-76
2021/08/20 10:03:18;;;;;;;1.70;1.50;;;18.50;99.90;;;19.23;100.00;98283.31;4947169;28;20497;-76
2021/08/20 10:05:49;;;;;;;2.33;1.30;;;18.50;99.90;;;19.28;100.00;98282.63;4947855;29;20540;-76
2021/08/20 10:08:20;;;;;;;2.33;1.30;;;18.50;99.90;;;19.29;100.00;98271.78;4959263;28;20499;-76
2021/08/20 10:10:52;;;;;;;1.50;1.20;;;18.60;99.90;;;19.31;100.00;98276.84;4957211;28;20533;-76
2021/08/20 10:13:26;;;;;;;3.13;1.40;;;18.60;99.90;;;19.36;100.00;98269.81;4962874;28;20468;-76
2021/08/20 10:16:00;;;;;;;2.30;1.30;;;18.60;99.90;;;19.42;100.00;98270.72;4954940;28;20541;-76
2021/08/20 10:18:30;;;;;;;1.67;1.23;;;18.70;99.90;;;19.50;100.00;98263.19;4956964;28;20472;-76
2021/08/20 10:21:01;;;;;;;1.57;1.20;;;18.80;99.90;;;19.55;100.00;98260.63;4959273;28;20489;-76
2021/08/20 10:23:32;;;;;;;1.93;1.33;;;18.90;99.90;;;19.64;100.00;98262.88;4952777;28;20537;-75